sensor_id;sensor_type;location;lat;lon;timestamp;temperature;humidity
75899;DHT22;64576;50.460;4.866;2023-11-21T00:00:55;7.70;99.99
75899;DHT22;64576;50.460;4.866;2023-11-21T00:03:20;7.73;99.99
75899;DHT22;64576;50.460;4.866;2023-11-21T00:05:48;7.69;99.99
75899;DHT22;64576;50.460;4.866;2023-11-21T00:08:15;7.75;99.99
75899;DHT22;64576;50.460;4.866;2023-11-21T00:10:40;7.69;99.99
75899;DHT22;64576;50.460;4.866;2023-11-21T00:13:07;7.70;99.99
75899;DHT22;64576;50.460;4.866;2023-11-21T00:15:32;7.72;99.99
75899;DHT22;64576;50.460;4.866;2023-11-21T00:17:58;7.75;99.99
75899;DHT22;64576;50.460;4.866;2023-11-21T00:20:24;7.75;99.99
75899;DHT22;64576;50.460;4.866;2023-11-21T00:22:49;7.73;99.99
75899;DHT22;64576;50.460;4.866;2023-11-21T00:25:16;7.73;99.99
75899;DHT22;64576;50.460;4.866;2023-11-21T00:27:42;7.75;99.99
75899;DHT22;64576;50.460;4.866;2023-11-21T00:30:08;7.75;99.99
75899;DHT22;64576;50.460;4.866;2023-11-21T00:32:35;7.76;99.99
75899;DHT22;64576;50.460;4.866;2023-11-21T00:35:01;7.72;99.99
75899;DHT22;64576;50.460;4.866;2023-11-21T00:37:27;7.75;99.99
75899;DHT22;64576;50.460;4.866;2023-11-21T00:39:52;7.70;99.99
75899;DHT22;64576;50.460;4.866;2023-11-21T00:42:18;7.73;99.99
75899;DHT22;64576;50.460;4.866;2023-11-21T00:44:44;7.73;99.99
75899;DHT22;64576;50.460;4.866;2023-11-21T00:47:11;7.76;99.99
75899;DHT22;64576;50.460;4.866;2023-11-21T00:49:36;7.76;99.99
75899;DHT22;64576;50.460;4.866;2023-11-21T00:52:03;7.78;99.99
75899;DHT22;64576;50.460;4.866;2023-11-21T00:54:29;7.78;99.99
75899;DHT22;64576;50.460;4.866;2023-11-21T00:56:55;7.79;99.99
75899;DHT22;64576;50.460;4.866;2023-11-21T00:59:21;7.80;99.99
75899;DHT22;64576;50.460;4.866;2023-11-21T01:01:48;7.85;99.99
75899;DHT22;64576;50.460;4.866;2023-11-21T01:04:13;7.83;99.99
75899;DHT22;64576;50.460;4.866;2023-11-21T01:06:40;7.80;99.99
75899;DHT22;64576;50.460;4.866;2023-11-21T01:09:06;7.85;99.99
75899;DHT22;64576;50.460;4.866;2023-11-21T01:11:34;7.79;99.99
75899;DHT22;64576;50.460;4.866;2023-11-21T01:14:02;7.80;99.99
75899;DHT22;64576;50.460;4.866;2023-11-21T01:16:28;7.85;99.99
75899;DHT22;64576;50.460;4.866;2023-11-21T01:18:58;7.82;99.99
75899;DHT22;64576;50.460;4.866;2023-11-21T01:21:26;7.83;99.99
75899;DHT22;64576;50.460;4.866;2023-11-21T01:23:54;7.80;99.99
75899;DHT22;64576;50.460;4.866;2023-11-21T01:26:20;7.83;99.99
75899;DHT22;64576;50.460;4.866;2023-11-21T01:28:46;7.78;99.99
75899;DHT22;64576;50.460;4.866;2023-11-21T01:31:14;7.80;99.99
75899;DHT22;64576;50.460;4.866;2023-11-21T01:33:40;7.82;99.99
75899;DHT22;64576;50.460;4.866;2023-11-21T01:36:06;7.82;99.99
75899;DHT22;64576;50.460;4.866;2023-11-21T01:38:31;7.85;99.99
75899;DHT22;64576;50.460;4.866;2023-11-21T01:40:57;7.83;99.99
75899;DHT22;64576;50.460;4.866;2023-11-21T01:43:22;7.80;99.99
75899;DHT22;64576;50.460;4.866;2023-11-21T01:45:48;7.78;99.99
75899;DHT22;64576;50.460;4.866;2023-11-21T01:48:16;7.78;99.99
75899;DHT22;64576;50.460;4.866;2023-11-21T01:50:42;7.80;99.99
75899;DHT22;64576;50.460;4.866;2023-11-21T01:53:12;7.78;99.99
75899;DHT22;64576;50.460;4.866;2023-11-21T01:55:40;7.79;99.99
75899;DHT22;64576;50.460;4.866;2023-11-21T01:58:06;7.85;99.99
75899;DHT22;64576;50.460;4.866;2023-11-21T02:00:33;7.76;99.99
75899;DHT22;64576;50.460;4.866;2023-11-21T02:02:58;7.78;99.99
75899;DHT22;64576;50.460;4.866;2023-11-21T02:05:25;7.78;99.99
75899;DHT22;64576;50.460;4.866;2023-11-21T02:07:51;7.78;99.99
75899;DHT22;64576;50.460;4.866;2023-11-21T02:10:18;7.78;99.99
75899;DHT22;64576;50.460;4.866;2023-11-21T02:12:48;7.78;99.99
75899;DHT22;64576;50.460;4.866;2023-11-21T02:15:16;7.82;99.99
75899;DHT22;64576;50.460;4.866;2023-11-21T02:17:48;7.75;99.99
75899;DHT22;64576;50.460;4.866;2023-11-21T02:20:17;7.76;99.99
75899;DHT22;64576;50.460;4.866;2023-11-21T02:22:52;7.75;99.99
75899;DHT22;64576;50.460;4.866;2023-11-21T02:25:28;7.79;99.99
75899;DHT22;64576;50.460;4.866;2023-11-21T02:27:54;7.79;99.99
75899;DHT22;64576;50.460;4.866;2023-11-21T02:30:21;7.83;99.99
75899;DHT22;64576;50.460;4.866;2023-11-21T02:32:50;7.85;99.99
75899;DHT22;64576;50.460;4.866;2023-11-21T02:35:18;7.82;99.99
75899;DHT22;64576;50.460;4.866;2023-11-21T02:37:48;7.86;99.99
75899;DHT22;64576;50.460;4.866;2023-11-21T02:40:13;7.79;99.99
75899;DHT22;64576;50.460;4.866;2023-11-21T02:42:43;7.82;99.99
75899;DHT22;64576;50.460;4.866;2023-11-21T02:45:10;7.85;99.99
75899;DHT22;64576;50.460;4.866;2023-11-21T02:47:38;7.83;99.99
75899;DHT22;64576;50.460;4.866;2023-11-21T02:50:04;7.89;99.99
75899;DHT22;64576;50.460;4.866;2023-11-21T02:52:32;7.83;99.99
75899;DHT22;64576;50.460;4.866;2023-11-21T02:54:58;7.87;99.99
75899;DHT22;64576;50.460;4.866;2023-11-21T02:57:24;7.90;99.99
75899;DHT22;64576;50.460;4.866;2023-11-21T02:59:49;7.87;99.99
75899;DHT22;64576;50.460;4.866;2023-11-21T03:02:15;7.90;99.99
75899;DHT22;64576;50.460;4.866;2023-11-21T03:04:42;7.90;99.99
75899;DHT22;64576;50.460;4.866;2023-11-21T03:07:08;7.90;99.99
75899;DHT22;64576;50.460;4.866;2023-11-21T03:09:34;7.83;99.99
75899;DHT22;64576;50.460;4.866;2023-11-21T03:12:00;7.83;99.99
75899;DHT22;64576;50.460;4.866;2023-11-21T03:14:25;7.80;99.99
75899;DHT22;64576;50.460;4.866;2023-11-21T03:16:51;7.78;99.99
75899;DHT22;64576;50.460;4.866;2023-11-21T03:19:16;7.87;99.99
75899;DHT22;64576;50.460;4.866;2023-11-21T03:21:42;7.89;99.99
75899;DHT22;64576;50.460;4.866;2023-11-21T03:24:08;7.87;99.99
75899;DHT22;64576;50.460;4.866;2023-11-21T03:26:33;7.83;99.99
75899;DHT22;64576;50.460;4.866;2023-11-21T03:28:59;7.83;99.99
75899;DHT22;64576;50.460;4.866;2023-11-21T03:31:25;7.78;99.99
75899;DHT22;64576;50.460;4.866;2023-11-21T03:33:51;7.78;99.99
75899;DHT22;64576;50.460;4.866;2023-11-21T03:36:19;7.73;99.99
75899;DHT22;64576;50.460;4.866;2023-11-21T03:38:44;7.75;99.99
75899;DHT22;64576;50.460;4.866;2023-11-21T03:41:09;7.70;99.99
75899;DHT22;64576;50.460;4.866;2023-11-21T03:43:36;7.69;99.99
75899;DHT22;64576;50.460;4.866;2023-11-21T03:46:01;7.66;99.99
75899;DHT22;64576;50.460;4.866;2023-11-21T03:48:27;7.68;99.99
75899;DHT22;64576;50.460;4.866;2023-11-21T03:50:53;7.66;99.99
75899;DHT22;64576;50.460;4.866;2023-11-21T03:53:18;7.69;99.99
75899;DHT22;64576;50.460;4.866;2023-11-21T03:55:44;7.68;99.99
75899;DHT22;64576;50.460;4.866;2023-11-21T03:58:10;7.68;99.99
75899;DHT22;64576;50.460;4.866;2023-11-21T04:00:36;7.65;99.99
75899;DHT22;64576;50.460;4.866;2023-11-21T04:03:01;7.63;99.99
75899;DHT22;64576;50.460;4.866;2023-11-21T04:05:28;7.63;99.99
75899;DHT22;64576;50.460;4.866;2023-11-21T04:07:55;7.62;99.99
75899;DHT22;64576;50.460;4.866;2023-11-21T04:10:21;7.62;99.99
75899;DHT22;64576;50.460;4.866;2023-11-21T04:12:47;7.63;99.99
75899;DHT22;64576;50.460;4.866;2023-11-21T04:15:12;7.56;99.99
75899;DHT22;64576;50.460;4.866;2023-11-21T04:17:39;7.58;99.99
75899;DHT22;64576;50.460;4.866;2023-11-21T04:20:05;7.62;99.99
75899;DHT22;64576;50.460;4.866;2023-11-21T04:22:36;7.61;99.99
75899;DHT22;64576;50.460;4.866;2023-11-21T04:25:01;7.59;99.99
75899;DHT22;64576;50.460;4.866;2023-11-21T04:27:27;7.59;99.99
75899;DHT22;64576;50.460;4.866;2023-11-21T04:29:52;7.55;99.99
75899;DHT22;64576;50.460;4.866;2023-11-21T04:32:18;7.52;99.99
75899;DHT22;64576;50.460;4.866;2023-11-21T04:34:43;7.54;99.99
75899;DHT22;64576;50.460;4.866;2023-11-21T04:37:08;7.58;99.99
75899;DHT22;64576;50.460;4.866;2023-11-21T04:39:35;7.49;99.99
75899;DHT22;64576;50.460;4.866;2023-11-21T04:42:01;7.48;99.99
75899;DHT22;64576;50.460;4.866;2023-11-21T04:44:26;7.45;99.99
75899;DHT22;64576;50.460;4.866;2023-11-21T04:46:52;7.47;99.99
75899;DHT22;64576;50.460;4.866;2023-11-21T04:49:17;7.44;99.99
75899;DHT22;64576;50.460;4.866;2023-11-21T04:51:43;7.42;99.99
75899;DHT22;64576;50.460;4.866;2023-11-21T04:54:08;7.40;99.99
75899;DHT22;64576;50.460;4.866;2023-11-21T04:56:34;7.35;99.99
75899;DHT22;64576;50.460;4.866;2023-11-21T04:58:59;7.35;99.99
75899;DHT22;64576;50.460;4.866;2023-11-21T05:01:26;7.44;99.99
75899;DHT22;64576;50.460;4.866;2023-11-21T05:03:52;7.44;99.99
75899;DHT22;64576;50.460;4.866;2023-11-21T05:06:18;7.42;99.99
75899;DHT22;64576;50.460;4.866;2023-11-21T05:08:43;7.47;99.99
75899;DHT22;64576;50.460;4.866;2023-11-21T05:11:08;7.45;99.99
75899;DHT22;64576;50.460;4.866;2023-11-21T05:13:35;7.45;99.99
75899;DHT22;64576;50.460;4.866;2023-11-21T05:16:01;7.48;99.99
75899;DHT22;64576;50.460;4.866;2023-11-21T05:18:29;7.51;99.99
75899;DHT22;64576;50.460;4.866;2023-11-21T05:20:55;7.52;99.99
75899;DHT22;64576;50.460;4.866;2023-11-21T05:23:21;7.55;99.99
75899;DHT22;64576;50.460;4.866;2023-11-21T05:25:48;7.55;99.99
75899;DHT22;64576;50.460;4.866;2023-11-21T05:28:13;7.47;99.99
75899;DHT22;64576;50.460;4.866;2023-11-21T05:30:39;7.44;99.99
75899;DHT22;64576;50.460;4.866;2023-11-21T05:33:05;7.48;99.99
75899;DHT22;64576;50.460;4.866;2023-11-21T05:35:30;7.51;99.99
75899;DHT22;64576;50.460;4.866;2023-11-21T05:37:56;7.51;99.99
75899;DHT22;64576;50.460;4.866;2023-11-21T05:40:22;7.55;99.99
75899;DHT22;64576;50.460;4.866;2023-11-21T05:42:48;7.55;99.99
75899;DHT22;64576;50.460;4.866;2023-11-21T05:45:13;7.58;99.99
75899;DHT22;64576;50.460;4.866;2023-11-21T05:47:44;7.59;99.99
75899;DHT22;64576;50.460;4.866;2023-11-21T05:50:12;7.63;99.99
75899;DHT22;64576;50.460;4.866;2023-11-21T05:52:40;7.61;99.99
75899;DHT22;64576;50.460;4.866;2023-11-21T05:55:07;7.65;99.99
75899;DHT22;64576;50.460;4.866;2023-11-21T05:57:39;7.62;99.99
75899;DHT22;64576;50.460;4.866;2023-11-21T06:00:10;7.62;99.99
75899;DHT22;64576;50.460;4.866;2023-11-21T06:02:52;7.63;99.99
75899;DHT22;64576;50.460;4.866;2023-11-21T06:05:19;7.66;99.99
75899;DHT22;64576;50.460;4.866;2023-11-21T06:07:44;7.65;99.99
75899;DHT22;64576;50.460;4.866;2023-11-21T06:10:11;7.63;99.99
75899;DHT22;64576;50.460;4.866;2023-11-21T06:12:38;7.63;99.99
75899;DHT22;64576;50.460;4.866;2023-11-21T06:15:05;7.61;99.99
75899;DHT22;64576;50.460;4.866;2023-11-21T06:17:37;7.65;99.99
75899;DHT22;64576;50.460;4.866;2023-11-21T06:20:03;7.72;99.99
75899;DHT22;64576;50.460;4.866;2023-11-21T06:22:38;7.66;99.99
75899;DHT22;64576;50.460;4.866;2023-11-21T06:25:04;7.65;99.99
75899;DHT22;64576;50.460;4.866;2023-11-21T06:27:32;7.65;99.99
75899;DHT22;64576;50.460;4.866;2023-11-21T06:29:59;7.63;99.99
75899;DHT22;64576;50.460;4.866;2023-11-21T06:32:26;7.62;99.99
75899;DHT22;64576;50.460;4.866;2023-11-21T06:34:51;7.65;99.99
75899;DHT22;64576;50.460;4.866;2023-11-21T06:37:20;7.68;99.99
75899;DHT22;64576;50.460;4.866;2023-11-21T06:39:51;7.68;99.99
75899;DHT22;64576;50.460;4.866;2023-11-21T06:42:17;7.75;99.99
75899;DHT22;64576;50.460;4.866;2023-11-21T06:44:45;7.72;99.99
75899;DHT22;64576;50.460;4.866;2023-11-21T06:47:12;7.72;99.99
75899;DHT22;64576;50.460;4.866;2023-11-21T06:49:42;7.70;99.99
75899;DHT22;64576;50.460;4.866;2023-11-21T06:52:13;7.69;99.99
75899;DHT22;64576;50.460;4.866;2023-11-21T06:54:39;7.70;99.99
75899;DHT22;64576;50.460;4.866;2023-11-21T06:57:05;7.73;99.99
75899;DHT22;64576;50.460;4.866;2023-11-21T06:59:31;7.79;99.99
75899;DHT22;64576;50.460;4.866;2023-11-21T07:01:59;7.85;99.99
75899;DHT22;64576;50.460;4.866;2023-11-21T07:04:25;7.79;99.99
75899;DHT22;64576;50.460;4.866;2023-11-21T07:06:53;7.82;99.99
75899;DHT22;64576;50.460;4.866;2023-11-21T07:09:19;7.79;99.99
75899;DHT22;64576;50.460;4.866;2023-11-21T07:11:49;7.83;99.99
75899;DHT22;64576;50.460;4.866;2023-11-21T07:14:24;7.79;99.99
75899;DHT22;64576;50.460;4.866;2023-11-21T07:16:50;7.80;99.99
75899;DHT22;64576;50.460;4.866;2023-11-21T07:19:17;7.86;99.99
75899;DHT22;64576;50.460;4.866;2023-11-21T07:21:43;7.85;99.99
75899;DHT22;64576;50.460;4.866;2023-11-21T07:24:08;7.85;99.99
75899;DHT22;64576;50.460;4.866;2023-11-21T07:26:35;7.87;99.99
75899;DHT22;64576;50.460;4.866;2023-11-21T07:29:02;7.90;99.99
75899;DHT22;64576;50.460;4.866;2023-11-21T07:31:33;7.86;99.99
75899;DHT22;64576;50.460;4.866;2023-11-21T07:34:01;7.91;99.99
75899;DHT22;64576;50.460;4.866;2023-11-21T07:36:28;7.90;99.99
75899;DHT22;64576;50.460;4.866;2023-11-21T07:38:53;7.91;99.99
75899;DHT22;64576;50.460;4.866;2023-11-21T07:41:19;7.96;99.99
75899;DHT22;64576;50.460;4.866;2023-11-21T07:43:45;7.98;99.99
75899;DHT22;64576;50.460;4.866;2023-11-21T07:46:11;7.97;99.99
75899;DHT22;64576;50.460;4.866;2023-11-21T07:48:38;8.01;99.99
75899;DHT22;64576;50.460;4.866;2023-11-21T07:51:03;8.06;99.99
75899;DHT22;64576;50.460;4.866;2023-11-21T07:53:29;8.11;99.99
75899;DHT22;64576;50.460;4.866;2023-11-21T07:55:55;8.07;99.99
75899;DHT22;64576;50.460;4.866;2023-11-21T07:58:21;8.11;99.99
75899;DHT22;64576;50.460;4.866;2023-11-21T08:00:47;8.17;99.99
75899;DHT22;64576;50.460;4.866;2023-11-21T08:03:15;8.17;99.99
75899;DHT22;64576;50.460;4.866;2023-11-21T08:05:42;8.21;99.99
75899;DHT22;64576;50.460;4.866;2023-11-21T08:08:08;8.27;99.99
75899;DHT22;64576;50.460;4.866;2023-11-21T08:10:34;8.23;99.99
75899;DHT22;64576;50.460;4.866;2023-11-21T08:13:02;8.30;99.99
75899;DHT22;64576;50.460;4.866;2023-11-21T08:15:45;8.28;99.99
75899;DHT22;64576;50.460;4.866;2023-11-21T08:18:12;8.33;99.99
75899;DHT22;64576;50.460;4.866;2023-11-21T08:20:40;8.37;99.99
75899;DHT22;64576;50.460;4.866;2023-11-21T08:23:07;8.35;99.99
75899;DHT22;64576;50.460;4.866;2023-11-21T08:25:34;8.40;99.99
75899;DHT22;64576;50.460;4.866;2023-11-21T08:28:00;8.41;99.99
75899;DHT22;64576;50.460;4.866;2023-11-21T08:30:30;8.38;99.99
75899;DHT22;64576;50.460;4.866;2023-11-21T08:32:59;8.44;99.99
75899;DHT22;64576;50.460;4.866;2023-11-21T08:35:24;8.54;99.99
75899;DHT22;64576;50.460;4.866;2023-11-21T08:37:53;8.56;99.99
75899;DHT22;64576;50.460;4.866;2023-11-21T08:40:20;8.68;99.99
75899;DHT22;64576;50.460;4.866;2023-11-21T08:42:46;8.71;99.99
75899;DHT22;64576;50.460;4.866;2023-11-21T08:45:14;8.69;99.99
75899;DHT22;64576;50.460;4.866;2023-11-21T08:47:39;8.73;99.99
75899;DHT22;64576;50.460;4.866;2023-11-21T08:50:06;8.82;99.99
75899;DHT22;64576;50.460;4.866;2023-11-21T08:52:33;8.94;99.99
75899;DHT22;64576;50.460;4.866;2023-11-21T08:54:59;8.82;99.99
75899;DHT22;64576;50.460;4.866;2023-11-21T08:57:28;8.89;99.99
75899;DHT22;64576;50.460;4.866;2023-11-21T08:59:55;8.97;99.99
75899;DHT22;64576;50.460;4.866;2023-11-21T09:02:21;8.89;99.99
75899;DHT22;64576;50.460;4.866;2023-11-21T09:04:48;8.87;99.99
75899;DHT22;64576;50.460;4.866;2023-11-21T09:07:14;8.89;99.99
75899;DHT22;64576;50.460;4.866;2023-11-21T09:09:39;8.92;99.99
75899;DHT22;64576;50.460;4.866;2023-11-21T09:12:05;8.94;99.99
75899;DHT22;64576;50.460;4.866;2023-11-21T09:14:31;8.92;99.99
75899;DHT22;64576;50.460;4.866;2023-11-21T09:16:56;8.83;99.99
75899;DHT22;64576;50.460;4.866;2023-11-21T09:19:21;8.89;99.99
75899;DHT22;64576;50.460;4.866;2023-11-21T09:21:47;8.93;99.99
75899;DHT22;64576;50.460;4.866;2023-11-21T09:24:12;8.86;99.99
75899;DHT22;64576;50.460;4.866;2023-11-21T09:26:38;8.77;99.99
75899;DHT22;64576;50.460;4.866;2023-11-21T09:29:04;8.82;99.99
75899;DHT22;64576;50.460;4.866;2023-11-21T09:31:29;8.84;99.99
75899;DHT22;64576;50.460;4.866;2023-11-21T09:34:03;8.83;99.99
75899;DHT22;64576;50.460;4.866;2023-11-21T09:36:29;8.83;99.99
75899;DHT22;64576;50.460;4.866;2023-11-21T09:38:55;8.80;99.99
75899;DHT22;64576;50.460;4.866;2023-11-21T09:41:34;8.80;99.99
75899;DHT22;64576;50.460;4.866;2023-11-21T09:44:02;8.84;99.99
75899;DHT22;64576;50.460;4.866;2023-11-21T09:46:33;8.84;99.99
75899;DHT22;64576;50.460;4.866;2023-11-21T09:49:00;8.83;99.99
75899;DHT22;64576;50.460;4.866;2023-11-21T09:51:27;8.96;99.99
75899;DHT22;64576;50.460;4.866;2023-11-21T09:53:56;9.04;99.99
75899;DHT22;64576;50.460;4.866;2023-11-21T09:56:24;9.04;99.99
75899;DHT22;64576;50.460;4.866;2023-11-21T09:58:53;9.06;99.99
75899;DHT22;64576;50.460;4.866;2023-11-21T10:01:19;9.06;99.99
75899;DHT22;64576;50.460;4.866;2023-11-21T10:03:46;9.06;99.99
75899;DHT22;64576;50.460;4.866;2023-11-21T10:06:13;9.09;99.99
75899;DHT22;64576;50.460;4.866;2023-11-21T10:08:39;9.14;99.99
75899;DHT22;64576;50.460;4.866;2023-11-21T10:11:06;9.28;99.99
75899;DHT22;64576;50.460;4.866;2023-11-21T10:13:37;9.37;99.99
75899;DHT22;64576;50.460;4.866;2023-11-21T10:16:04;9.44;99.99
75899;DHT22;64576;50.460;4.866;2023-11-21T10:18:31;9.35;99.99
75899;DHT22;64576;50.460;4.866;2023-11-21T10:20:59;9.31;99.99
75899;DHT22;64576;50.460;4.866;2023-11-21T10:23:25;9.37;99.99
75899;DHT22;64576;50.460;4.866;2023-11-21T10:25:54;9.45;99.99
75899;DHT22;64576;50.460;4.866;2023-11-21T10:28:22;9.39;99.99
75899;DHT22;64576;50.460;4.866;2023-11-21T10:30:48;9.44;99.99
75899;DHT22;64576;50.460;4.866;2023-11-21T10:33:13;9.41;99.99
75899;DHT22;64576;50.460;4.866;2023-11-21T10:38:07;9.37;99.99
75899;DHT22;64576;50.460;4.866;2023-11-21T10:40:38;9.38;99.99
75899;DHT22;64576;50.460;4.866;2023-11-21T10:43:10;9.34;99.99
75899;DHT22;64576;50.460;4.866;2023-11-21T10:45:38;9.31;99.99
75899;DHT22;64576;50.460;4.866;2023-11-21T10:48:10;9.39;99.99
75899;DHT22;64576;50.460;4.866;2023-11-21T10:50:37;9.26;99.99
75899;DHT22;64576;50.460;4.866;2023-11-21T10:53:04;9.34;99.99
75899;DHT22;64576;50.460;4.866;2023-11-21T10:55:30;9.41;99.99
75899;DHT22;64576;50.460;4.866;2023-11-21T10:57:59;9.44;99.99
75899;DHT22;64576;50.460;4.866;2023-11-21T11:00:26;9.47;99.99
75899;DHT22;64576;50.460;4.866;2023-11-21T11:02:53;9.52;99.99
75899;DHT22;64576;50.460;4.866;2023-11-21T11:05:23;9.55;99.99
75899;DHT22;64576;50.460;4.866;2023-11-21T11:07:58;9.62;99.99
75899;DHT22;64576;50.460;4.866;2023-11-21T11:10:27;9.68;99.99
75899;DHT22;64576;50.460;4.866;2023-11-21T11:12:55;9.76;99.99
75899;DHT22;64576;50.460;4.866;2023-11-21T11:15:21;10.04;99.99
75899;DHT22;64576;50.460;4.866;2023-11-21T11:17:48;10.17;99.99
75899;DHT22;64576;50.460;4.866;2023-11-21T11:20:16;10.29;99.99
75899;DHT22;64576;50.460;4.866;2023-11-21T11:22:58;10.38;99.99
75899;DHT22;64576;50.460;4.866;2023-11-21T11:28:15;10.72;99.99
75899;DHT22;64576;50.460;4.866;2023-11-21T11:31:18;10.69;99.99
75899;DHT22;64576;50.460;4.866;2023-11-21T11:34:39;10.57;99.99
75899;DHT22;64576;50.460;4.866;2023-11-21T11:36:49;10.33;99.99
75899;DHT22;64576;50.460;4.866;2023-11-21T11:39:32;10.24;99.99
75899;DHT22;64576;50.460;4.866;2023-11-21T11:42:03;10.25;99.99
75899;DHT22;64576;50.460;4.866;2023-11-21T11:47:24;10.00;99.99
75899;DHT22;64576;50.460;4.866;2023-11-21T11:52:39;9.85;99.99
75899;DHT22;64576;50.460;4.866;2023-11-21T11:55:07;9.89;99.99
75899;DHT22;64576;50.460;4.866;2023-11-21T11:57:35;10.03;99.99
75899;DHT22;64576;50.460;4.866;2023-11-21T12:00:18;9.86;99.99
75899;DHT22;64576;50.460;4.866;2023-11-21T12:03:05;9.76;99.99
75899;DHT22;64576;50.460;4.866;2023-11-21T12:05:36;9.85;99.99
75899;DHT22;64576;50.460;4.866;2023-11-21T12:08:05;9.83;99.99
75899;DHT22;64576;50.460;4.866;2023-11-21T12:10:36;9.87;99.99
75899;DHT22;64576;50.460;4.866;2023-11-21T12:13:07;9.76;99.99
75899;DHT22;64576;50.460;4.866;2023-11-21T12:15:33;9.89;99.99
75899;DHT22;64576;50.460;4.866;2023-11-21T12:17:59;9.92;99.99
75899;DHT22;64576;50.460;4.866;2023-11-21T12:20:25;9.81;99.99
75899;DHT22;64576;50.460;4.866;2023-11-21T12:22:57;9.74;99.99
75899;DHT22;64576;50.460;4.866;2023-11-21T12:25:25;9.79;99.99
75899;DHT22;64576;50.460;4.866;2023-11-21T12:27:54;9.72;99.99
75899;DHT22;64576;50.460;4.866;2023-11-21T12:30:22;9.61;99.99
75899;DHT22;64576;50.460;4.866;2023-11-21T12:32:52;9.62;99.99
75899;DHT22;64576;50.460;4.866;2023-11-21T12:35:19;9.61;99.99
75899;DHT22;64576;50.460;4.866;2023-11-21T12:37:47;9.68;99.99
75899;DHT22;64576;50.460;4.866;2023-11-21T12:40:13;9.62;99.99
75899;DHT22;64576;50.460;4.866;2023-11-21T12:42:45;9.68;99.99
75899;DHT22;64576;50.460;4.866;2023-11-21T12:47:43;9.74;99.99
75899;DHT22;64576;50.460;4.866;2023-11-21T12:50:10;9.74;99.99
75899;DHT22;64576;50.460;4.866;2023-11-21T12:52:45;9.78;99.99
75899;DHT22;64576;50.460;4.866;2023-11-21T12:55:18;9.68;99.99
75899;DHT22;64576;50.460;4.866;2023-11-21T12:57:48;9.75;99.99
75899;DHT22;64576;50.460;4.866;2023-11-21T13:00:17;9.61;99.99
75899;DHT22;64576;50.460;4.866;2023-11-21T13:02:56;9.61;99.99
75899;DHT22;64576;50.460;4.866;2023-11-21T13:05:27;9.66;99.99
75899;DHT22;64576;50.460;4.866;2023-11-21T13:07:54;9.76;99.99
75899;DHT22;64576;50.460;4.866;2023-11-21T13:10:23;9.72;99.99
75899;DHT22;64576;50.460;4.866;2023-11-21T13:12:52;9.83;99.99
75899;DHT22;64576;50.460;4.866;2023-11-21T13:15:18;9.94;99.99
75899;DHT22;64576;50.460;4.866;2023-11-21T13:17:44;9.89;99.99
75899;DHT22;64576;50.460;4.866;2023-11-21T13:20:11;9.93;99.99
75899;DHT22;64576;50.460;4.866;2023-11-21T13:22:48;9.99;99.99
75899;DHT22;64576;50.460;4.866;2023-11-21T13:25:15;10.14;99.99
75899;DHT22;64576;50.460;4.866;2023-11-21T13:27:43;10.14;99.99
75899;DHT22;64576;50.460;4.866;2023-11-21T13:30:11;10.41;99.99
75899;DHT22;64576;50.460;4.866;2023-11-21T13:32:44;10.42;99.99
75899;DHT22;64576;50.460;4.866;2023-11-21T13:35:15;10.58;99.99
75899;DHT22;64576;50.460;4.866;2023-11-21T13:37:50;10.45;99.99
75899;DHT22;64576;50.460;4.866;2023-11-21T13:40:22;10.29;99.99
75899;DHT22;64576;50.460;4.866;2023-11-21T13:42:51;10.27;99.99
75899;DHT22;64576;50.460;4.866;2023-11-21T13:45:19;10.47;99.99
75899;DHT22;64576;50.460;4.866;2023-11-21T13:47:47;10.38;99.99
75899;DHT22;64576;50.460;4.866;2023-11-21T13:50:14;10.55;99.99
75899;DHT22;64576;50.460;4.866;2023-11-21T13:52:47;10.62;99.99
75899;DHT22;64576;50.460;4.866;2023-11-21T13:55:13;10.54;99.99
75899;DHT22;64576;50.460;4.866;2023-11-21T13:57:42;10.40;99.99
75899;DHT22;64576;50.460;4.866;2023-11-21T14:00:18;10.41;99.99
75899;DHT22;64576;50.460;4.866;2023-11-21T14:03:02;10.47;99.99
75899;DHT22;64576;50.460;4.866;2023-11-21T14:05:34;10.44;99.99
75899;DHT22;64576;50.460;4.866;2023-11-21T14:08:01;10.33;99.99
75899;DHT22;64576;50.460;4.866;2023-11-21T14:10:31;10.27;99.99
75899;DHT22;64576;50.460;4.866;2023-11-21T14:13:07;10.18;99.99
75899;DHT22;64576;50.460;4.866;2023-11-21T14:15:36;10.06;99.99
75899;DHT22;64576;50.460;4.866;2023-11-21T14:18:10;10.02;99.99
75899;DHT22;64576;50.460;4.866;2023-11-21T14:20:39;9.92;99.99
75899;DHT22;64576;50.460;4.866;2023-11-21T14:23:06;9.93;99.99
75899;DHT22;64576;50.460;4.866;2023-11-21T14:25:36;9.96;99.99
75899;DHT22;64576;50.460;4.866;2023-11-21T14:28:03;9.89;99.99
75899;DHT22;64576;50.460;4.866;2023-11-21T14:30:29;9.92;99.99
75899;DHT22;64576;50.460;4.866;2023-11-21T14:32:58;9.81;99.99
75899;DHT22;64576;50.460;4.866;2023-11-21T14:35:23;9.78;99.99
75899;DHT22;64576;50.460;4.866;2023-11-21T14:37:49;9.82;99.99
75899;DHT22;64576;50.460;4.866;2023-11-21T14:40:14;9.78;99.99
75899;DHT22;64576;50.460;4.866;2023-11-21T14:42:42;9.79;99.99
75899;DHT22;64576;50.460;4.866;2023-11-21T14:45:10;9.68;99.99
75899;DHT22;64576;50.460;4.866;2023-11-21T14:47:38;9.71;99.99
75899;DHT22;64576;50.460;4.866;2023-11-21T14:50:09;9.69;99.99
75899;DHT22;64576;50.460;4.866;2023-11-21T14:53:00;9.62;99.99
75899;DHT22;64576;50.460;4.866;2023-11-21T14:55:28;9.65;99.99
75899;DHT22;64576;50.460;4.866;2023-11-21T14:58:12;9.61;99.99
75899;DHT22;64576;50.460;4.866;2023-11-21T15:00:46;9.63;99.99
75899;DHT22;64576;50.460;4.866;2023-11-21T15:03:13;9.62;99.99
75899;DHT22;64576;50.460;4.866;2023-11-21T15:06:10;9.54;99.99
75899;DHT22;64576;50.460;4.866;2023-11-21T15:08:53;9.55;99.99
75899;DHT22;64576;50.460;4.866;2023-11-21T15:11:34;9.51;99.99
75899;DHT22;64576;50.460;4.866;2023-11-21T15:14:00;9.49;99.99
75899;DHT22;64576;50.460;4.866;2023-11-21T15:16:26;9.48;99.99
75899;DHT22;64576;50.460;4.866;2023-11-21T15:18:52;9.47;99.99
75899;DHT22;64576;50.460;4.866;2023-11-21T15:21:21;9.51;99.99
75899;DHT22;64576;50.460;4.866;2023-11-21T15:23:50;9.42;99.99
75899;DHT22;64576;50.460;4.866;2023-11-21T15:26:16;9.47;99.99
75899;DHT22;64576;50.460;4.866;2023-11-21T15:28:41;9.47;99.99
75899;DHT22;64576;50.460;4.866;2023-11-21T15:31:08;9.48;99.99
75899;DHT22;64576;50.460;4.866;2023-11-21T15:33:35;9.39;99.99
75899;DHT22;64576;50.460;4.866;2023-11-21T15:36:02;9.35;99.99
75899;DHT22;64576;50.460;4.866;2023-11-21T15:38:32;9.34;99.99
75899;DHT22;64576;50.460;4.866;2023-11-21T15:40:58;9.30;99.99
75899;DHT22;64576;50.460;4.866;2023-11-21T15:43:25;9.21;99.99
75899;DHT22;64576;50.460;4.866;2023-11-21T15:45:55;9.18;99.99
75899;DHT22;64576;50.460;4.866;2023-11-21T15:48:21;9.23;99.99
75899;DHT22;64576;50.460;4.866;2023-11-21T15:50:57;9.24;99.99
75899;DHT22;64576;50.460;4.866;2023-11-21T15:55:59;9.14;99.99
75899;DHT22;64576;50.460;4.866;2023-11-21T15:58:25;9.18;99.99
75899;DHT22;64576;50.460;4.866;2023-11-21T16:00:51;9.17;99.99
75899;DHT22;64576;50.460;4.866;2023-11-21T16:03:17;9.17;99.99
75899;DHT22;64576;50.460;4.866;2023-11-21T16:05:43;9.20;99.99